Time,TemperatureF,DewpointF,PressureIn,WindDirection,WindDirectionDegrees,WindSpeedMPH,WindSpeedGustMPH,Humidity,HourlyPrecipIn,Conditions,Clouds,dailyrainin,SoftwareType,DateUTC
2013-03-31 00:05:00,38.7,33.7,30.11,ENE,58,0.0,0.0,82,0.00,,,0.00,Wunderground v.1.12,2013-03-31 06:05:00,
2013-03-31 00:10:00,38.2,33.2,30.11,NE,49,0.0,0.0,82,0.00,,,0.00,Wunderground v.1.12,2013-03-31 06:10:00,
2013-03-31 00:15:00,38.2,33.2,30.11,NE,49,0.0,0.0,82,0.00,,,0.00,Wunderground v.1.12,2013-03-31 06:15:00,
2013-03-31 00:20:00,38.5,33.5,30.10,NE,54,0.0,0.0,82,0.00,,,0.00,Wunderground v.1.12,2013-03-31 06:20:00,
2013-03-31 00:25:00,38.3,33.3,30.11,NE,49,0.0,0.0,82,0.00,,,0.00,Wunderground v.1.12,2013-03-31 06:25:00,
2013-03-31 00:35:00,38.0,33.3,30.10,NE,50,0.0,0.0,83,0.00,,,0.00,Wunderground v.1.12,2013-03-31 06:35:00,
2013-03-31 00:40:00,37.9,33.2,30.10,NE,38,0.0,0.0,83,0.00,,,0.00,Wunderground v.1.12,2013-03-31 06:40:00,
2013-03-31 00:45:00,38.0,33.0,30.10,NE,48,0.0,0.0,82,0.00,,,0.00,Wunderground v.1.12,2013-03-31 06:45:00,
2013-03-31 00:50:00,38.0,33.3,30.10,NE,49,0.0,0.0,83,0.00,,,0.00,Wunderground v.1.12,2013-03-31 06:50:00,
2013-03-31 00:55:00,37.7,33.0,30.10,NE,55,0.0,0.0,83,0.00,,,0.00,Wunderground v.1.12,2013-03-31 06:55:00,
2013-03-31 01:05:00,37.3,32.6,30.10,NE,53,0.0,0.0,83,0.00,,,0.00,Wunderground v.1.12,2013-03-31 07:05:00,
2013-03-31 01:10:00,37.1,32.7,30.10,NE,56,0.0,0.0,84,0.00,,,0.00,Wunderground v.1.12,2013-03-31 07:10:00,
2013-03-31 01:15:00,37.3,32.6,30.10,ENE,57,0.0,0.0,83,0.00,,,0.00,Wunderground v.1.12,2013-03-31 07:15:00,
2013-03-31 01:20:00,37.2,32.5,30.11,NE,46,0.0,0.0,83,0.00,,,0.00,Wunderground v.1.12,2013-03-31 07:20:00,
2013-03-31 01:25:00,37.2,32.8,30.10,ENE,61,0.0,0.0,84,0.00,,,0.00,Wunderground v.1.12,2013-03-31 07:25:00,
2013-03-31 01:30:00,37.0,32.3,30.10,ENE,65,0.0,0.0,83,0.00,,,0.00,Wunderground v.1.12,2013-03-31 07:30:00,
2013-03-31 01:40:00,37.0,32.6,30.10,NNE,31,0.0,0.0,84,0.00,,,0.00,Wunderground v.1.12,2013-03-31 07:40:00,
2013-03-31 01:45:00,36.6,32.2,30.10,NE,56,0.0,0.0,84,0.00,,,0.00,Wunderground v.1.12,2013-03-31 07:45:00,
2013-03-31 01:50:00,36.5,32.1,30.10,ENE,65,0.0,0.0,84,0.00,,,0.00,Wunderground v.1.12,2013-03-31 07:50:00,
2013-03-31 02:00:00,36.4,32.0,30.10,NE,49,0.0,0.0,84,0.00,,,0.00,Wunderground v.1.12,2013-03-31 08:00:00,
2013-03-31 02:10:00,35.9,31.5,30.10,NE,34,0.0,0.0,84,0.00,,,0.00,Wunderground v.1.12,2013-03-31 08:10:00,
2013-03-31 02:15:00,36.0,31.6,30.10,NE,51,0.0,0.0,84,0.00,,,0.00,Wunderground v.1.12,2013-03-31 08:15:00,
2013-03-31 02:20:00,35.8,31.4,30.10,NE,49,0.0,0.0,84,0.00,,,0.00,Wunderground v.1.12,2013-03-31 08:20:00,
2013-03-31 02:25:00,35.7,31.3,30.10,NE,47,0.0,0.0,84,0.00,,,0.00,Wunderground v.1.12,2013-03-31 08:25:00,
2013-03-31 02:30:00,35.8,31.7,30.10,NE,48,0.0,0.0,85,0.00,,,0.00,Wunderground v.1.12,2013-03-31 08:30:00,
2013-03-31 02:35:00,35.4,31.3,30.10,NE,40,0.0,0.0,85,0.00,,,0.00,Wunderground v.1.12,2013-03-31 08:35:00,
2013-03-31 02:40:00,35.6,31.5,30.10,NE,40,0.0,0.0,85,0.00,,,0.00,Wunderground v.1.12,2013-03-31 08:40:00,
2013-03-31 02:45:00,35.5,31.4,30.10,NE,56,0.0,0.0,85,0.00,,,0.00,Wunderground v.1.12,2013-03-31 08:45:00,
2013-03-31 02:50:00,35.3,31.2,30.10,NE,56,0.0,0.0,85,0.00,,,0.00,Wunderground v.1.12,2013-03-31 08:50:00,
2013-03-31 02:55:00,34.9,30.8,30.10,NE,56,0.0,0.0,85,0.00,,,0.00,Wunderground v.1.12,2013-03-31 08:55:00,
2013-03-31 03:00:00,34.6,30.8,30.10,NE,56,0.0,0.0,86,0.00,,,0.00,Wunderground v.1.12,2013-03-31 09:00:00,
2013-03-31 03:05:00,34.9,31.1,30.10,NE,54,0.0,0.0,86,0.00,,,0.00,Wunderground v.1.12,2013-03-31 09:05:00,
2013-03-31 03:15:00,34.7,30.9,30.10,NE,47,0.0,0.0,86,0.00,,,0.00,Wunderground v.1.12,2013-03-31 09:15:00,
2013-03-31 03:20:00,34.5,30.5,30.10,NE,45,0.0,0.0,85,0.00,,,0.00,Wunderground v.1.12,2013-03-31 09:20:00,
2013-03-31 03:25:00,34.7,30.9,30.10,NE,49,0.0,0.0,86,0.00,,,0.00,Wunderground v.1.12,2013-03-31 09:25:00,
2013-03-31 03:30:00,34.5,30.7,30.10,NE,47,0.0,0.0,86,0.00,,,0.00,Wunderground v.1.12,2013-03-31 09:30:00,
2013-03-31 03:35:00,34.7,30.9,30.10,NE,47,0.0,0.0,86,0.00,,,0.00,Wunderground v.1.12,2013-03-31 09:35:00,
2013-03-31 03:45:00,34.5,30.7,30.10,ENE,63,0.0,0.0,86,0.00,,,0.00,Wunderground v.1.12,2013-03-31 09:45:00,
2013-03-31 03:50:00,34.4,30.6,30.10,NE,55,0.0,0.0,86,0.00,,,0.00,Wunderground v.1.12,2013-03-31 09:50:00,
2013-03-31 03:55:00,34.3,30.8,30.09,NE,44,0.0,0.0,87,0.00,,,0.00,Wunderground v.1.12,2013-03-31 09:55:00,
2013-03-31 04:00:00,34.3,30.5,30.10,NE,38,0.0,0.0,86,0.00,,,0.00,Wunderground v.1.12,2013-03-31 10:00:00,
2013-03-31 04:10:00,33.7,30.0,30.10,NE,45,0.0,0.0,86,0.00,,,0.00,Wunderground v.1.12,2013-03-31 10:10:00,
2013-03-31 04:20:00,33.9,30.2,30.09,NE,47,0.0,0.0,86,0.00,,,0.00,Wunderground v.1.12,2013-03-31 10:20:00,
2013-03-31 04:25:00,33.8,30.1,30.09,NE,44,0.0,0.0,86,0.00,,,0.00,Wunderground v.1.12,2013-03-31 10:25:00,
2013-03-31 04:30:00,33.5,30.0,30.09,NE,44,0.0,0.0,87,0.00,,,0.00,Wunderground v.1.12,2013-03-31 10:30:00,
2013-03-31 04:35:00,33.5,30.0,30.09,NE,44,0.0,0.0,87,0.00,,,0.00,Wunderground v.1.12,2013-03-31 10:35:00,
2013-03-31 04:40:00,33.6,29.9,30.09,NE,44,0.0,0.0,86,0.00,,,0.00,Wunderground v.1.12,2013-03-31 10:40:00,
2013-03-31 04:45:00,33.5,29.8,30.09,NE,44,0.0,0.0,86,0.00,,,0.00,Wunderground v.1.12,2013-03-31 10:45:00,
2013-03-31 04:50:00,33.6,29.9,30.09,NE,44,0.0,0.0,86,0.00,,,0.00,Wunderground v.1.12,2013-03-31 10:50:00,
2013-03-31 05:00:00,33.1,29.7,30.10,NE,49,0.0,0.0,87,0.00,,,0.00,Wunderground v.1.12,2013-03-31 11:00:00,
2013-03-31 05:05:00,32.7,29.3,30.10,NE,46,0.0,0.0,87,0.00,,,0.00,Wunderground v.1.12,2013-03-31 11:05:00,
2013-03-31 05:10:00,32.5,29.1,30.10,NE,46,0.0,0.0,87,0.00,,,0.00,Wunderground v.1.12,2013-03-31 11:10:00,
2013-03-31 05:20:00,32.8,29.6,30.10,NE,46,0.0,0.0,88,0.00,,,0.00,Wunderground v.1.12,2013-03-31 11:20:00,
2013-03-31 05:25:00,32.5,29.3,30.10,NE,46,0.0,0.0,88,0.00,,,0.00,Wunderground v.1.12,2013-03-31 11:25:00,
2013-03-31 05:30:00,32.7,29.3,30.10,NE,46,0.0,0.0,87,0.00,,,0.00,Wunderground v.1.12,2013-03-31 11:30:00,
2013-03-31 05:35:00,32.2,28.8,30.10,NE,43,0.0,0.0,87,0.00,,,0.00,Wunderground v.1.12,2013-03-31 11:35:00,
2013-03-31 05:40:00,32.3,29.1,30.10,NE,43,0.0,0.0,88,0.00,,,0.00,Wunderground v.1.12,2013-03-31 11:40:00,
2013-03-31 05:45:00,32.0,28.8,30.11,NE,40,0.0,0.0,88,0.00,,,0.00,Wunderground v.1.12,2013-03-31 11:45:00,
2013-03-31 05:55:00,32.0,28.8,30.11,NE,39,0.0,0.0,88,0.00,,,0.00,Wunderground v.1.12,2013-03-31 11:55:00,
2013-03-31 06:00:00,31.9,28.5,30.11,NE,42,0.0,0.0,87,0.00,,,0.00,Wunderground v.1.12,2013-03-31 12:00:00,
2013-03-31 06:05:00,32.1,28.9,30.11,NE,42,0.0,0.0,88,0.00,,,0.00,Wunderground v.1.12,2013-03-31 12:05:00,
2013-03-31 06:10:00,31.6,28.5,30.11,NE,42,0.0,0.0,88,0.00,,,0.00,Wunderground v.1.12,2013-03-31 12:10:00,
2013-03-31 06:20:00,32.1,28.9,30.11,NE,42,0.0,0.0,88,0.00,,,0.00,Wunderground v.1.12,2013-03-31 12:20:00,
2013-03-31 06:25:00,32.0,28.8,30.11,NE,42,0.0,0.0,88,0.00,,,0.00,Wunderground v.1.12,2013-03-31 12:25:00,
2013-03-31 06:30:00,31.6,28.5,30.11,NE,42,0.0,0.0,88,0.00,,,0.00,Wunderground v.1.12,2013-03-31 12:30:00,
2013-03-31 06:35:00,31.6,28.5,30.11,NE,42,0.0,0.0,88,0.00,,,0.00,Wunderground v.1.12,2013-03-31 12:35:00,
2013-03-31 06:40:00,31.9,28.5,30.11,NE,42,0.0,0.0,87,0.00,,,0.00,Wunderground v.1.12,2013-03-31 12:40:00,
2013-03-31 06:45:00,31.5,28.1,30.11,NE,42,0.0,0.0,87,0.00,,,0.00,Wunderground v.1.12,2013-03-31 12:45:00,
2013-03-31 06:50:00,31.6,28.5,30.11,NE,42,0.0,0.0,88,0.00,,,0.00,Wunderground v.1.12,2013-03-31 12:50:00,
2013-03-31 06:55:00,31.3,28.2,30.11,NE,42,0.0,0.0,88,0.00,,,0.00,Wunderground v.1.12,2013-03-31 12:55:00,
2013-03-31 07:00:00,31.3,28.2,30.11,NE,42,0.0,0.0,88,0.00,,,0.00,Wunderground v.1.12,2013-03-31 13:00:00,
2013-03-31 07:05:00,31.5,28.4,30.12,NE,42,0.0,0.0,88,0.00,,,0.00,Wunderground v.1.12,2013-03-31 13:05:00,
2013-03-31 07:10:00,31.3,27.9,30.12,NE,42,0.0,0.0,87,0.00,,,0.00,Wunderground v.1.12,2013-03-31 13:10:00,
2013-03-31 07:15:00,31.1,28.0,30.12,NE,42,0.0,0.0,88,0.00,,,0.00,Wunderground v.1.12,2013-03-31 13:15:00,
2013-03-31 07:20:00,30.9,27.8,30.12,NE,42,0.0,0.0,88,0.00,,,0.00,Wunderground v.1.12,2013-03-31 13:20:00,
2013-03-31 07:40:00,30.9,28.0,30.12,NE,42,0.0,0.0,89,0.00,,,0.00,Wunderground v.1.12,2013-03-31 13:40:00,
2013-03-31 07:45:00,31.4,28.5,30.12,NE,42,0.0,0.0,89,0.00,,,0.00,Wunderground v.1.12,2013-03-31 13:45:00,
2013-03-31 07:50:00,31.7,28.8,30.12,NE,42,0.0,0.0,89,0.00,,,0.00,Wunderground v.1.12,2013-03-31 13:50:00,
2013-03-31 07:55:00,32.0,29.1,30.12,NE,42,0.0,0.0,89,0.00,,,0.00,Wunderground v.1.12,2013-03-31 13:55:00,
2013-03-31 08:00:00,32.3,29.4,30.12,NE,42,0.0,0.0,89,0.00,,,0.00,Wunderground v.1.12,2013-03-31 14:00:00,
2013-03-31 08:10:00,33.5,31.2,30.12,NE,42,0.0,0.0,91,0.00,,,0.00,Wunderground v.1.12,2013-03-31 14:10:00,
2013-03-31 08:15:00,34.3,31.9,30.12,NE,42,0.0,0.0,91,0.00,,,0.00,Wunderground v.1.12,2013-03-31 14:15:00,
2013-03-31 08:20:00,35.0,32.6,30.13,NE,42,0.0,0.0,91,0.00,,,0.00,Wunderground v.1.12,2013-03-31 14:20:00,
2013-03-31 08:25:00,35.9,33.5,30.13,SW,224,0.0,0.0,91,0.00,,,0.00,Wunderground v.1.12,2013-03-31 14:25:00,
2013-03-31 08:30:00,36.9,34.0,30.13,SW,224,0.0,0.0,89,0.00,,,0.00,Wunderground v.1.12,2013-03-31 14:30:00,
2013-03-31 08:35:00,37.9,34.9,30.13,SW,224,0.0,0.0,89,0.00,,,0.00,Wunderground v.1.12,2013-03-31 14:35:00,
2013-03-31 08:40:00,38.3,35.1,30.13,SW,224,0.0,0.0,88,0.00,,,0.00,Wunderground v.1.12,2013-03-31 14:40:00,
2013-03-31 08:45:00,39.0,35.5,30.13,SW,224,0.0,0.0,87,0.00,,,0.00,Wunderground v.1.12,2013-03-31 14:45:00,
2013-03-31 08:50:00,39.5,35.7,30.13,SW,224,0.0,0.0,86,0.00,,,0.00,Wunderground v.1.12,2013-03-31 14:50:00,
2013-03-31 08:55:00,40.2,36.1,30.13,SW,224,0.0,0.0,85,0.00,,,0.00,Wunderground v.1.12,2013-03-31 14:55:00,
2013-03-31 09:00:00,40.9,36.7,30.13,SW,224,0.0,0.0,85,0.00,,,0.00,Wunderground v.1.12,2013-03-31 15:00:00,
2013-03-31 09:10:00,42.1,37.3,30.13,SW,224,0.0,0.0,83,0.00,,,0.00,Wunderground v.1.12,2013-03-31 15:10:00,
2013-03-31 09:20:00,43.2,37.4,30.13,SW,224,0.0,0.0,80,0.00,,,0.00,Wunderground v.1.12,2013-03-31 15:20:00,
2013-03-31 09:25:00,43.8,38.0,30.13,SW,224,0.0,0.0,80,0.00,,,0.00,Wunderground v.1.12,2013-03-31 15:25:00,
2013-03-31 09:30:00,44.4,38.3,30.13,SW,224,0.0,0.0,79,0.00,,,0.00,Wunderground v.1.12,2013-03-31 15:30:00,
2013-03-31 09:35:00,45.0,38.6,30.12,SW,224,0.0,0.0,78,0.00,,,0.00,Wunderground v.1.12,2013-03-31 15:35:00,
2013-03-31 09:45:00,46.3,39.5,30.13,SW,224,0.0,0.0,77,0.00,,,0.00,Wunderground v.1.12,2013-03-31 15:45:00,
2013-03-31 09:50:00,46.7,39.5,30.12,SW,224,0.0,0.0,76,0.00,,,0.00,Wunderground v.1.12,2013-03-31 15:50:00,
2013-03-31 09:55:00,47.6,39.7,30.13,SW,224,0.0,0.0,74,0.00,,,0.00,Wunderground v.1.12,2013-03-31 15:55:00,
2013-03-31 10:00:00,47.7,39.5,30.12,SW,224,0.0,0.0,73,0.00,,,0.00,Wunderground v.1.12,2013-03-31 16:00:00,
2013-03-31 10:05:00,48.1,40.2,30.12,SW,224,0.0,0.0,74,0.00,,,0.00,Wunderground v.1.12,2013-03-31 16:05:00,
2013-03-31 10:10:00,47.9,38.9,30.12,SW,224,0.0,0.0,71,0.00,,,0.00,Wunderground v.1.12,2013-03-31 16:10:00,
2013-03-31 10:20:00,48.8,39.8,30.12,SW,224,0.0,0.0,71,0.00,,,0.00,Wunderground v.1.12,2013-03-31 16:20:00,
2013-03-31 10:25:00,49.5,41.2,30.12,SW,224,0.0,0.0,73,0.00,,,0.00,Wunderground v.1.12,2013-03-31 16:25:00,
2013-03-31 10:35:00,51.4,42.3,30.12,SW,224,0.0,0.0,71,0.00,,,0.00,Wunderground v.1.12,2013-03-31 16:35:00,
2013-03-31 10:40:00,52.1,42.6,30.12,SW,224,0.0,0.0,70,0.00,,,0.00,Wunderground v.1.12,2013-03-31 16:40:00,
2013-03-31 10:50:00,53.1,42.0,30.11,SW,224,0.0,0.0,66,0.00,,,0.00,Wunderground v.1.12,2013-03-31 16:50:00,
2013-03-31 10:55:00,53.9,44.0,30.11,SW,224,0.0,0.0,69,0.00,,,0.00,Wunderground v.1.12,2013-03-31 16:55:00,
2013-03-31 11:00:00,54.5,43.8,30.11,SW,224,0.0,0.0,67,0.00,,,0.00,Wunderground v.1.12,2013-03-31 17:00:00,
2013-03-31 11:10:00,55.5,43.9,30.10,WSW,255,0.0,0.0,65,0.00,,,0.00,Wunderground v.1.12,2013-03-31 17:10:00,
2013-03-31 11:15:00,55.9,43.1,30.10,SSW,205,0.0,0.0,62,0.00,,,0.00,Wunderground v.1.12,2013-03-31 17:15:00,
2013-03-31 11:20:00,56.1,43.3,30.10,SW,231,0.0,0.0,62,0.00,,,0.00,Wunderground v.1.12,2013-03-31 17:20:00,
2013-03-31 11:25:00,56.1,42.8,30.10,South,191,0.0,0.0,61,0.00,,,0.00,Wunderground v.1.12,2013-03-31 17:25:00,
2013-03-31 11:30:00,56.2,42.1,30.10,WSW,248,0.0,0.0,59,0.00,,,0.00,Wunderground v.1.12,2013-03-31 17:30:00,
2013-03-31 11:35:00,56.6,42.4,30.10,South,187,0.0,0.0,59,0.00,,,0.00,Wunderground v.1.12,2013-03-31 17:35:00,
2013-03-31 11:45:00,56.8,42.6,30.10,SW,228,0.0,0.0,59,0.00,,,0.00,Wunderground v.1.12,2013-03-31 17:45:00,
2013-03-31 11:55:00,57.2,42.5,30.10,South,189,0.0,0.0,58,0.00,,,0.00,Wunderground v.1.12,2013-03-31 17:55:00,
2013-03-31 12:00:00,57.4,42.7,30.09,SSW,195,0.0,0.0,58,0.00,,,0.00,Wunderground v.1.12,2013-03-31 18:00:00,
2013-03-31 12:05:00,57.7,43.0,30.10,South,187,0.0,0.0,58,0.00,,,0.00,Wunderground v.1.12,2013-03-31 18:05:00,
2013-03-31 12:15:00,57.8,42.2,30.09,SSW,209,0.0,0.0,56,0.00,,,0.00,Wunderground v.1.12,2013-03-31 18:15:00,
2013-03-31 12:25:00,58.0,41.4,30.09,SW,232,0.0,0.0,54,0.00,,,0.00,Wunderground v.1.12,2013-03-31 18:25:00,
2013-03-31 12:30:00,58.3,43.6,30.09,SW,214,0.0,0.0,58,0.00,,,0.00,Wunderground v.1.12,2013-03-31 18:30:00,
2013-03-31 12:35:00,57.9,42.3,30.09,SSW,204,0.0,0.0,56,0.00,,,0.00,Wunderground v.1.12,2013-03-31 18:35:00,
2013-03-31 12:40:00,58.1,42.9,30.09,SSE,149,0.0,0.0,57,0.00,,,0.00,Wunderground v.1.12,2013-03-31 18:40:00,
2013-03-31 12:45:00,58.3,42.2,30.09,SSW,207,0.0,0.0,55,0.00,,,0.00,Wunderground v.1.12,2013-03-31 18:45:00,
2013-03-31 12:50:00,58.2,43.0,30.09,WSW,249,0.0,0.0,57,0.00,,,0.00,Wunderground v.1.12,2013-03-31 18:50:00,
2013-03-31 13:00:00,58.6,42.0,30.08,SSW,195,0.0,0.0,54,0.00,,,0.00,Wunderground v.1.12,2013-03-31 19:00:00,
2013-03-31 13:05:00,58.3,43.1,30.08,South,180,0.0,0.0,57,0.00,,,0.00,Wunderground v.1.12,2013-03-31 19:05:00,
2013-03-31 13:10:00,58.1,42.0,30.08,SSW,213,0.0,0.0,55,0.00,,,0.00,Wunderground v.1.12,2013-03-31 19:10:00,
2013-03-31 13:15:00,57.7,42.1,30.08,SSW,212,0.0,0.0,56,0.00,,,0.00,Wunderground v.1.12,2013-03-31 19:15:00,
2013-03-31 13:20:00,57.7,42.1,30.08,SSW,193,0.0,0.0,56,0.00,,,0.00,Wunderground v.1.12,2013-03-31 19:20:00,
2013-03-31 13:25:00,57.6,42.5,30.08,South,182,0.0,0.0,57,0.00,,,0.00,Wunderground v.1.12,2013-03-31 19:25:00,
2013-03-31 13:30:00,57.6,42.9,30.08,SW,214,0.0,0.0,58,0.00,,,0.00,Wunderground v.1.12,2013-03-31 19:30:00,
2013-03-31 13:35:00,57.4,42.7,30.08,South,185,0.0,0.0,58,0.00,,,0.00,Wunderground v.1.12,2013-03-31 19:35:00,
2013-03-31 13:40:00,57.2,42.1,30.07,SSW,197,0.0,0.0,57,0.00,,,0.00,Wunderground v.1.12,2013-03-31 19:40:00,
2013-03-31 13:45:00,57.2,42.1,30.07,South,175,0.0,0.0,57,0.00,,,0.00,Wunderground v.1.12,2013-03-31 19:45:00,
2013-03-31 13:50:00,57.0,41.4,30.07,SSW,206,0.0,0.0,56,0.00,,,0.00,Wunderground v.1.12,2013-03-31 19:50:00,
2013-03-31 14:00:00,56.8,41.7,30.07,SSE,162,0.0,0.0,57,0.00,,,0.00,Wunderground v.1.12,2013-03-31 20:00:00,
2013-03-31 14:05:00,56.7,42.1,30.07,SSW,193,0.0,0.0,58,0.00,,,0.00,Wunderground v.1.12,2013-03-31 20:05:00,
2013-03-31 14:10:00,56.7,41.2,30.07,South,173,0.0,0.0,56,0.00,,,0.00,Wunderground v.1.12,2013-03-31 20:10:00,
2013-03-31 14:15:00,56.6,42.0,30.06,South,173,0.0,0.0,58,0.00,,,0.00,Wunderground v.1.12,2013-03-31 20:15:00,
2013-03-31 14:20:00,56.7,41.2,30.06,South,187,0.0,0.0,56,0.00,,,0.00,Wunderground v.1.12,2013-03-31 20:20:00,
2013-03-31 14:25:00,56.5,41.9,30.06,South,188,0.0,0.0,58,0.00,,,0.00,Wunderground v.1.12,2013-03-31 20:25:00,
2013-03-31 14:35:00,56.8,42.2,30.06,North,0,0.0,0.0,58,0.00,,,0.00,Wunderground v.1.12,2013-03-31 20:35:00,
2013-03-31 14:40:00,56.7,42.5,30.05,NE,56,0.0,0.0,59,0.00,,,0.00,Wunderground v.1.12,2013-03-31 20:40:00,
2013-03-31 14:45:00,56.6,41.5,30.05,SW,229,0.0,0.0,57,0.00,,,0.00,Wunderground v.1.12,2013-03-31 20:45:00,
2013-03-31 14:50:00,56.5,41.9,30.05,SW,233,0.0,0.0,58,0.00,,,0.00,Wunderground v.1.12,2013-03-31 20:50:00,
2013-03-31 14:55:00,56.5,43.2,30.05,WSW,250,0.0,0.0,61,0.00,,,0.00,Wunderground v.1.12,2013-03-31 20:55:00,
2013-03-31 15:05:00,56.5,41.9,30.04,SSW,198,0.0,0.0,58,0.00,,,0.00,Wunderground v.1.12,2013-03-31 21:05:00,
2013-03-31 15:10:00,56.6,42.4,30.04,South,187,0.0,0.0,59,0.00,,,0.00,Wunderground v.1.12,2013-03-31 21:10:00,
2013-03-31 15:15:00,56.5,41.4,30.04,South,176,0.0,0.0,57,0.00,,,0.00,Wunderground v.1.12,2013-03-31 21:15:00,
2013-03-31 15:20:00,56.7,42.1,30.04,SSW,208,0.0,0.0,58,0.00,,,0.00,Wunderground v.1.12,2013-03-31 21:20:00,
2013-03-31 15:25:00,56.7,42.1,30.03,North,359,0.0,0.0,58,0.00,,,0.00,Wunderground v.1.12,2013-03-31 21:25:00,
2013-03-31 15:30:00,56.9,43.6,30.03,WNW,301,0.0,0.0,61,0.00,,,0.00,Wunderground v.1.12,2013-03-31 21:30:00,
2013-03-31 15:35:00,57.0,42.4,30.03,WSW,256,0.0,0.0,58,0.00,,,0.00,Wunderground v.1.12,2013-03-31 21:35:00,
2013-03-31 15:40:00,56.9,42.3,30.03,WNW,301,0.0,0.0,58,0.00,,,0.00,Wunderground v.1.12,2013-03-31 21:40:00,
2013-03-31 15:45:00,57.1,42.9,30.02,North,0,0.0,0.0,59,0.00,,,0.00,Wunderground v.1.12,2013-03-31 21:45:00,
2013-03-31 15:50:00,57.2,42.5,30.02,North,0,0.0,0.0,58,0.00,,,0.00,Wunderground v.1.12,2013-03-31 21:50:00,
2013-03-31 15:55:00,57.1,42.5,30.02,North,0,0.0,0.0,58,0.00,,,0.00,Wunderground v.1.12,2013-03-31 21:55:00,
2013-03-31 16:00:00,57.1,42.9,30.02,North,0,0.0,0.0,59,0.00,,,0.00,Wunderground v.1.12,2013-03-31 22:00:00,
2013-03-31 16:10:00,56.9,42.3,30.02,WSW,247,0.0,0.0,58,0.00,,,0.00,Wunderground v.1.12,2013-03-31 22:10:00,
2013-03-31 16:15:00,57.1,41.5,30.02,SW,231,0.0,0.0,56,0.00,,,0.00,Wunderground v.1.12,2013-03-31 22:15:00,
2013-03-31 16:20:00,56.9,40.9,30.01,ENE,62,0.0,0.0,55,0.00,,,0.00,Wunderground v.1.12,2013-03-31 22:20:00,
2013-03-31 16:25:00,56.9,42.3,30.01,SW,225,0.0,0.0,58,0.00,,,0.00,Wunderground v.1.12,2013-03-31 22:25:00,
2013-03-31 16:30:00,57.1,42.0,30.01,SSW,206,0.0,0.0,57,0.00,,,0.00,Wunderground v.1.12,2013-03-31 22:30:00,
2013-03-31 16:40:00,57.1,41.5,30.01,SSW,204,0.0,0.0,56,0.00,,,0.00,Wunderground v.1.12,2013-03-31 22:40:00,
2013-03-31 16:45:00,57.1,41.5,30.01,South,191,0.0,0.0,56,0.00,,,0.00,Wunderground v.1.12,2013-03-31 22:45:00,
2013-03-31 16:50:00,57.0,41.0,30.01,South,190,0.0,0.0,55,0.00,,,0.00,Wunderground v.1.12,2013-03-31 22:50:00,
2013-03-31 16:55:00,57.0,41.9,30.01,South,171,0.0,0.0,57,0.00,,,0.00,Wunderground v.1.12,2013-03-31 22:55:00,
2013-03-31 17:00:00,56.9,41.8,30.00,SW,219,0.0,0.0,57,0.00,,,0.00,Wunderground v.1.12,2013-03-31 23:00:00,
2013-03-31 17:05:00,57.0,42.8,30.00,WSW,247,0.0,0.0,59,0.00,,,0.00,Wunderground v.1.12,2013-03-31 23:05:00,
2013-03-31 17:10:00,57.0,42.8,30.00,North,0,0.0,0.0,59,0.00,,,0.00,Wunderground v.1.12,2013-03-31 23:10:00,
2013-03-31 17:20:00,56.9,42.3,30.00,SW,235,0.0,0.0,58,0.00,,,0.00,Wunderground v.1.12,2013-03-31 23:20:00,
2013-03-31 17:25:00,56.9,41.8,30.00,SW,234,0.0,0.0,57,0.00,,,0.00,Wunderground v.1.12,2013-03-31 23:25:00,
2013-03-31 17:30:00,57.0,41.4,30.00,South,184,0.0,0.0,56,0.00,,,0.00,Wunderground v.1.12,2013-03-31 23:30:00,
2013-03-31 17:35:00,57.0,41.0,30.00,South,186,0.0,0.0,55,0.00,,,0.00,Wunderground v.1.12,2013-03-31 23:35:00,
2013-03-31 17:45:00,57.2,41.6,30.00,SW,218,0.0,0.0,56,0.00,,,0.00,Wunderground v.1.12,2013-03-31 23:45:00,
2013-03-31 17:50:00,57.0,41.4,29.99,South,186,0.0,0.0,56,0.00,,,0.00,Wunderground v.1.12,2013-03-31 23:50:00,
2013-03-31 18:00:00,56.9,41.4,29.99,WSW,240,0.0,0.0,56,0.00,,,0.00,Wunderground v.1.12,2013-04-01 00:00:00,
2013-03-31 18:05:00,56.9,41.4,29.99,SSW,198,0.0,0.0,56,0.00,,,0.00,Wunderground v.1.12,2013-04-01 00:05:00,
2013-03-31 18:10:00,56.8,40.8,30.00,South,186,0.0,0.0,55,0.00,,,0.00,Wunderground v.1.12,2013-04-01 00:10:00,
2013-03-31 18:15:00,56.8,40.3,29.99,South,187,0.0,0.0,54,0.00,,,0.00,Wunderground v.1.12,2013-04-01 00:15:00,
2013-03-31 18:20:00,56.7,40.7,29.99,SSW,199,0.0,0.0,55,0.00,,,0.00,Wunderground v.1.12,2013-04-01 00:20:00,
2013-03-31 18:25:00,56.6,40.6,29.99,South,185,0.0,0.0,55,0.00,,,0.00,Wunderground v.1.12,2013-04-01 00:25:00,
2013-03-31 18:30:00,56.5,40.5,29.99,South,188,0.0,0.0,55,0.00,,,0.00,Wunderground v.1.12,2013-04-01 00:30:00,
2013-03-31 18:35:00,56.5,40.5,29.99,South,188,0.0,0.0,55,0.00,,,0.00,Wunderground v.1.12,2013-04-01 00:35:00,
2013-03-31 18:40:00,56.3,40.3,29.99,South,188,0.0,0.0,55,0.00,,,0.00,Wunderground v.1.12,2013-04-01 00:40:00,
2013-03-31 18:45:00,56.3,41.3,29.98,SSW,203,0.0,1.0,57,0.00,,,0.00,Wunderground v.1.12,2013-04-01 00:45:00,
2013-03-31 18:50:00,56.2,40.2,29.99,South,187,0.0,0.0,55,0.00,,,0.00,Wunderground v.1.12,2013-04-01 00:50:00,
2013-03-31 18:55:00,56.1,40.1,29.99,South,187,0.0,0.0,55,0.00,,,0.00,Wunderground v.1.12,2013-04-01 00:55:00,
2013-03-31 19:00:00,55.9,40.9,29.99,South,186,0.0,0.0,57,0.00,,,0.00,Wunderground v.1.12,2013-04-01 01:00:00,
2013-03-31 19:10:00,55.3,41.2,29.98,South,187,0.0,0.0,59,0.00,,,0.00,Wunderground v.1.12,2013-04-01 01:10:00,
2013-03-31 19:20:00,54.7,40.6,29.98,South,187,0.0,0.0,59,0.00,,,0.00,Wunderground v.1.12,2013-04-01 01:20:00,
2013-03-31 19:25:00,54.4,40.8,29.98,South,187,0.0,0.0,60,0.00,,,0.00,Wunderground v.1.12,2013-04-01 01:25:00,
2013-03-31 19:30:00,54.1,40.9,29.98,South,186,0.0,0.0,61,0.00,,,0.00,Wunderground v.1.12,2013-04-01 01:30:00,
2013-03-31 19:35:00,53.8,41.1,29.98,South,187,0.0,0.0,62,0.00,,,0.00,Wunderground v.1.12,2013-04-01 01:35:00,
2013-03-31 19:40:00,53.5,41.6,29.98,South,187,0.0,0.0,64,0.00,,,0.00,Wunderground v.1.12,2013-04-01 01:40:00,
2013-03-31 19:50:00,52.6,41.6,29.98,NE,56,0.0,0.0,66,0.00,,,0.00,Wunderground v.1.12,2013-04-01 01:50:00,
2013-03-31 19:55:00,52.2,42.0,29.98,NE,44,0.0,0.0,68,0.00,,,0.00,Wunderground v.1.12,2013-04-01 01:55:00,
2013-03-31 20:00:00,51.9,42.0,29.98,NE,43,0.0,0.0,69,0.00,,,0.00,Wunderground v.1.12,2013-04-01 02:00:00,
2013-03-31 20:05:00,51.5,42.0,29.98,NE,50,0.0,0.0,70,0.00,,,0.00,Wunderground v.1.12,2013-04-01 02:05:00,
2013-03-31 20:10:00,51.2,42.1,29.98,NE,56,0.0,0.0,71,0.00,,,0.00,Wunderground v.1.12,2013-04-01 02:10:00,
2013-03-31 20:20:00,50.5,41.8,29.98,NE,55,0.0,0.0,72,0.00,,,0.00,Wunderground v.1.12,2013-04-01 02:20:00,
2013-03-31 20:25:00,50.1,41.8,29.98,NE,55,0.0,0.0,73,0.00,,,0.00,Wunderground v.1.12,2013-04-01 02:25:00,
2013-03-31 20:30:00,49.8,41.5,29.98,NE,55,0.0,0.0,73,0.00,,,0.00,Wunderground v.1.12,2013-04-01 02:30:00,
2013-03-31 20:35:00,49.4,41.1,29.98,NE,55,0.0,0.0,73,0.00,,,0.00,Wunderground v.1.12,2013-04-01 02:35:00,
2013-03-31 20:40:00,49.2,41.3,29.98,NE,55,0.0,0.0,74,0.00,,,0.00,Wunderground v.1.12,2013-04-01 02:40:00,
2013-03-31 20:45:00,48.8,40.9,29.98,NE,45,0.0,0.0,74,0.00,,,0.00,Wunderground v.1.12,2013-04-01 02:45:00,
2013-03-31 20:55:00,48.2,40.6,29.98,NE,50,0.0,0.0,75,0.00,,,0.00,Wunderground v.1.12,2013-04-01 02:55:00,
2013-03-31 21:00:00,47.8,40.3,29.98,NE,56,0.0,0.0,75,0.00,,,0.00,Wunderground v.1.12,2013-04-01 03:00:00,
2013-03-31 21:05:00,47.6,40.4,29.98,NE,50,0.0,0.0,76,0.00,,,0.00,Wunderground v.1.12,2013-04-01 03:05:00,
2013-03-31 21:10:00,47.3,39.8,29.98,ENE,60,0.0,0.0,75,0.00,,,0.00,Wunderground v.1.12,2013-04-01 03:10:00,
2013-03-31 21:15:00,46.9,39.7,29.98,NE,54,0.0,0.0,76,0.00,,,0.00,Wunderground v.1.12,2013-04-01 03:15:00,
2013-03-31 21:25:00,46.3,39.5,29.98,NE,48,0.0,0.0,77,0.00,,,0.00,Wunderground v.1.12,2013-04-01 03:25:00,
2013-03-31 21:30:00,46.2,39.4,29.99,NE,51,0.0,0.0,77,0.00,,,0.00,Wunderground v.1.12,2013-04-01 03:30:00,
2013-03-31 21:40:00,45.4,38.6,29.99,NE,51,0.0,0.0,77,0.00,,,0.00,Wunderground v.1.12,2013-04-01 03:40:00,
2013-03-31 21:45:00,45.4,38.9,29.99,NE,47,0.0,0.0,78,0.00,,,0.00,Wunderground v.1.12,2013-04-01 03:45:00,
2013-03-31 21:50:00,45.1,38.6,29.99,NE,49,0.0,0.0,78,0.00,,,0.00,Wunderground v.1.12,2013-04-01 03:50:00,
2013-03-31 22:00:00,44.6,38.2,29.99,NE,37,0.0,0.0,78,0.00,,,0.00,Wunderground v.1.12,2013-04-01 04:00:00,
2013-03-31 22:05:00,44.3,38.2,29.99,NE,47,0.0,0.0,79,0.00,,,0.00,Wunderground v.1.12,2013-04-01 04:05:00,
2013-03-31 22:10:00,44.2,37.8,29.99,NE,52,0.0,0.0,78,0.00,,,0.00,Wunderground v.1.12,2013-04-01 04:10:00,
2013-03-31 22:15:00,43.7,37.6,29.99,NE,52,0.0,0.0,79,0.00,,,0.00,Wunderground v.1.12,2013-04-01 04:15:00,
2013-03-31 22:20:00,43.8,37.7,29.99,NE,43,0.0,0.0,79,0.00,,,0.00,Wunderground v.1.12,2013-04-01 04:20:00,
2013-03-31 22:30:00,43.5,37.4,29.99,NE,44,0.0,0.0,79,0.00,,,0.00,Wunderground v.1.12,2013-04-01 04:30:00,
2013-03-31 22:35:00,43.2,37.1,29.99,NE,46,0.0,0.0,79,0.00,,,0.00,Wunderground v.1.12,2013-04-01 04:35:00,
2013-03-31 22:40:00,42.7,36.6,29.99,NE,43,0.0,0.0,79,0.00,,,0.00,Wunderground v.1.12,2013-04-01 04:40:00,
2013-03-31 22:45:00,42.7,36.6,29.99,NE,42,0.0,0.0,79,0.00,,,0.00,Wunderground v.1.12,2013-04-01 04:45:00,
2013-03-31 22:50:00,42.4,36.3,29.99,NE,42,0.0,0.0,79,0.00,,,0.00,Wunderground v.1.12,2013-04-01 04:50:00,
2013-03-31 22:55:00,42.1,36.1,29.99,NE,42,0.0,0.0,79,0.00,,,0.00,Wunderground v.1.12,2013-04-01 04:55:00,
2013-03-31 23:05:00,41.6,35.6,29.99,NE,42,0.0,0.0,79,0.00,,,0.00,Wunderground v.1.12,2013-04-01 05:05:00,
2013-03-31 23:10:00,41.5,35.8,29.99,NE,50,0.0,0.0,80,0.00,,,0.00,Wunderground v.1.12,2013-04-01 05:10:00,
2013-03-31 23:15:00,41.2,35.5,29.99,NE,49,0.0,0.0,80,0.00,,,0.00,Wunderground v.1.12,2013-04-01 05:15:00,
2013-03-31 23:20:00,41.0,35.3,29.99,NE,49,0.0,0.0,80,0.00,,,0.00,Wunderground v.1.12,2013-04-01 05:20:00,
2013-03-31 23:25:00,40.9,35.5,29.99,NE,55,0.0,0.0,81,0.00,,,0.00,Wunderground v.1.12,2013-04-01 05:25:00,
2013-03-31 23:35:00,40.7,35.3,29.99,NE,44,0.0,0.0,81,0.00,,,0.00,Wunderground v.1.12,2013-04-01 05:35:00,
2013-03-31 23:40:00,40.2,34.5,29.99,NE,44,0.0,0.0,80,0.00,,,0.00,Wunderground v.1.12,2013-04-01 05:40:00,
2013-03-31 23:45:00,40.2,34.8,30.00,NE,45,0.0,0.0,81,0.00,,,0.00,Wunderground v.1.12,2013-04-01 05:45:00,
2013-03-31 23:50:00,40.3,34.9,29.99,NE,44,0.0,0.0,81,0.00,,,0.00,Wunderground v.1.12,2013-04-01 05:50:00,
2013-03-31 23:55:00,39.9,34.5,29.99,NE,44,0.0,0.0,81,0.00,,,0.00,Wunderground v.1.12,2013-04-01 05:55:00,